Time;durP1;ratioP1;P1;durP2;ratioP2;P2;SDS_P1;SDS_P2;PMS_P1;PMS_P2;Temp;Humidity;BMP_temperature;BMP_pressure;BME280_temperature;BME280_humidity;BME280_pressure;Samples;Min_cycle;Max_cycle;Signal;HPM_P1;HPM_P2
2022/08/28 00:00:18;;;;;;;8.00;2.60;;;14.40;99.90;;;;;;5069533;28;20489;-55
2022/08/28 00:02:45;;;;;;;7.75;2.78;;;14.40;99.90;;;;;;5069088;28;20063;-55
2022/08/28 00:05:12;;;;;;;4.50;2.00;;;14.40;99.90;;;;;;5069258;28;20055;-55
2022/08/28 00:07:38;;;;;;;7.82;2.20;;;14.30;99.90;;;;;;5069419;28;20131;-54
2022/08/28 00:10:06;;;;;;;5.70;2.40;;;14.30;99.90;;;;;;5068884;28;20124;-54
2022/08/28 00:12:32;;;;;;;5.35;2.05;;;14.30;99.90;;;;;;5069152;28;20052;-54
2022/08/28 00:14:58;;;;;;;9.73;2.63;;;14.30;99.90;;;;;;5069278;28;20048;-54
2022/08/28 00:17:24;;;;;;;7.78;3.08;;;14.20;99.90;;;;;;5068014;28;20135;-54
2022/08/28 00:19:49;;;;;;;5.40;1.80;;;14.20;99.90;;;;;;5048933;28;20094;-54
2022/08/28 00:22:15;;;;;;;5.55;2.15;;;14.30;99.90;;;;;;5048674;28;20066;-54
2022/08/28 00:24:43;;;;;;;6.97;2.38;;;14.20;99.90;;;;;;5068003;28;20396;-54
2022/08/28 00:29:53;;;;;;;;;;;14.20;99.90;;;;;;5069207;28;20105;-54
2022/08/28 00:32:23;;;;;;;7.53;1.83;;;14.20;99.90;;;;;;5069008;28;19928;-54
2022/08/28 00:34:51;;;;;;;4.57;2.25;;;14.10;99.90;;;;;;5068976;28;20052;-54
2022/08/28 00:37:17;;;;;;;5.47;2.00;;;14.10;99.90;;;;;;5056016;28;20052;-54
2022/08/28 00:39:43;;;;;;;6.85;2.47;;;14.10;99.90;;;;;;5061337;28;20060;-56
2022/08/28 00:42:09;;;;;;;3.22;1.70;;;14.10;99.90;;;;;;5068973;28;20048;-54
2022/08/28 00:44:35;;;;;;;6.55;2.05;;;14.10;99.90;;;;;;5068457;28;20445;-54
2022/08/28 00:47:02;;;;;;;6.50;2.03;;;14.10;99.90;;;;;;5068600;28;20036;-55
2022/08/28 00:49:32;;;;;;;3.03;1.70;;;14.10;99.90;;;;;;5068108;28;20508;-54
2022/08/28 00:52:06;;;;;;;5.80;1.75;;;14.10;99.90;;;;;;5068534;28;20043;-54
2022/08/28 00:54:45;;;;;;;7.50;2.20;;;14.10;99.90;;;;;;5067746;28;20064;-55
2022/08/28 00:57:16;;;;;;;9.18;3.65;;;14.10;99.90;;;;;;5068252;28;20048;-54
2022/08/28 00:59:42;;;;;;;7.07;2.45;;;14.00;99.90;;;;;;5068473;28;20306;-54
2022/08/28 01:02:08;;;;;;;8.10;2.00;;;14.00;99.90;;;;;;5050282;28;20842;-54
2022/08/28 01:04:36;;;;;;;9.63;2.30;;;14.00;99.90;;;;;;5049710;28;20044;-54
2022/08/28 01:07:06;;;;;;;9.95;2.72;;;14.00;99.90;;;;;;5067323;28;20048;-55
2022/08/28 01:09:33;;;;;;;8.23;2.03;;;14.00;99.90;;;;;;5067543;28;20045;-55
2022/08/28 01:12:05;;;;;;;6.15;2.63;;;14.00;99.90;;;;;;5067851;28;20067;-55
2022/08/28 01:14:33;;;;;;;5.80;3.13;;;14.00;99.90;;;;;;5067776;28;20141;-54
2022/08/28 01:16:59;;;;;;;7.93;2.47;;;14.00;99.90;;;;;;5067813;28;20510;-57
2022/08/28 01:19:33;;;;;;;5.65;1.80;;;14.00;99.90;;;;;;5050152;28;20119;-60
2022/08/28 01:22:21;;;;;;;4.15;1.88;;;14.00;99.90;;;;;;5047645;28;20647;-60
2022/08/28 01:24:48;;;;;;;7.45;2.88;;;14.00;99.90;;;;;;5067555;28;20045;-59
2022/08/28 01:27:14;;;;;;;9.10;2.75;;;13.90;99.90;;;;;;5067553;28;20051;-60
2022/08/28 01:29:40;;;;;;;3.88;1.95;;;14.00;99.90;;;;;;5067631;28;20078;-54
2022/08/28 01:32:06;;;;;;;7.72;2.05;;;14.00;99.90;;;;;;5067756;28;20056;-54
2022/08/28 01:34:32;;;;;;;7.07;2.42;;;13.90;99.90;;;;;;5067359;28;20041;-54
2022/08/28 01:36:58;;;;;;;11.80;3.45;;;13.90;99.90;;;;;;5057312;28;20108;-54
2022/08/28 01:39:26;;;;;;;8.32;2.13;;;14.00;99.90;;;;;;5066430;28;20037;-54
2022/08/28 01:41:53;;;;;;;12.35;2.85;;;13.90;99.90;;;;;;5067037;28;20508;-54
2022/08/28 01:44:25;;;;;;;3.97;1.58;;;13.90;99.90;;;;;;5067236;28;20493;-54
2022/08/28 01:46:57;;;;;;;4.47;2.45;;;13.80;99.90;;;;;;5067190;28;20438;-54
2022/08/28 01:49:23;;;;;;;5.22;2.45;;;13.80;99.90;;;;;;5067214;28;20048;-54
2022/08/28 01:51:49;;;;;;;5.05;1.95;;;13.80;99.90;;;;;;5067206;28;20048;-55
2022/08/28 01:54:15;;;;;;;5.07;2.03;;;13.80;99.90;;;;;;5067273;28;20110;-54
2022/08/28 01:56:43;;;;;;;7.40;2.35;;;13.80;99.90;;;;;;5067197;28;20090;-54
2022/08/28 01:59:10;;;;;;;9.52;3.67;;;13.80;99.90;;;;;;5066668;28;20129;-54
2022/08/28 02:01:37;;;;;;;5.03;2.97;;;13.80;99.90;;;;;;5067226;28;20052;-54
2022/08/28 02:04:03;;;;;;;9.13;2.10;;;13.90;99.90;;;;;;5066454;28;20135;-54
2022/08/28 02:06:30;;;;;;;3.95;1.90;;;13.90;99.90;;;;;;5066165;28;20109;-54
2022/08/28 02:08:57;;;;;;;5.75;2.63;;;14.00;99.90;;;;;;5066700;28;20044;-55
2022/08/28 02:11:24;;;;;;;6.22;2.42;;;14.00;99.90;;;;;;5067008;28;20119;-55
2022/08/28 02:13:50;;;;;;;7.85;3.17;;;14.00;99.90;;;;;;5066936;28;20044;-54
2022/08/28 02:16:17;;;;;;;7.97;2.45;;;14.00;99.90;;;;;;5067275;28;20135;-54
2022/08/28 02:18:42;;;;;;;5.07;1.92;;;14.10;99.90;;;;;;5054794;28;20043;-54
2022/08/28 02:21:09;;;;;;;9.82;2.15;;;14.20;99.90;;;;;;5057630;28;20873;-55
2022/08/28 02:23:38;;;;;;;4.40;2.20;;;14.10;99.90;;;;;;5066893;28;20052;-54
2022/08/28 02:26:04;;;;;;;7.75;2.90;;;14.10;99.90;;;;;;5066870;28;20498;-54
2022/08/28 02:28:29;;;;;;;5.22;1.75;;;14.10;99.90;;;;;;5066873;28;20048;-54
2022/08/28 02:30:55;;;;;;;9.63;2.53;;;14.10;99.90;;;;;;5067077;28;20054;-55
2022/08/28 02:33:21;;;;;;;4.38;2.25;;;14.10;99.90;;;;;;5066703;28;20045;-54
2022/08/28 02:35:46;;;;;;;6.68;2.20;;;14.10;99.90;;;;;;5065690;28;20075;-55
2022/08/28 02:38:13;;;;;;;5.78;2.20;;;14.10;99.90;;;;;;5028491;28;20120;-55
2022/08/28 02:40:40;;;;;;;6.05;1.92;;;14.10;99.90;;;;;;5046172;28;20056;-55
2022/08/28 02:43:06;;;;;;;8.32;2.75;;;14.10;99.90;;;;;;5046709;28;20410;-54
2022/08/28 02:45:32;;;;;;;3.80;1.85;;;14.00;99.90;;;;;;5046462;28;20080;-54
2022/08/28 02:47:57;;;;;;;8.05;2.13;;;14.00;99.90;;;;;;5047036;28;20107;-55
2022/08/28 02:50:23;;;;;;;5.85;2.55;;;13.90;99.90;;;;;;5050986;28;20045;-55
2022/08/28 02:52:50;;;;;;;6.35;2.05;;;13.90;99.90;;;;;;5066807;28;20044;-55
2022/08/28 02:55:17;;;;;;;7.40;2.05;;;13.90;99.90;;;;;;5048662;28;20056;-54
2022/08/28 02:57:44;;;;;;;9.07;2.05;;;13.90;99.90;;;;;;5066777;28;20044;-54
2022/08/28 03:00:14;;;;;;;4.28;2.08;;;13.90;99.90;;;;;;5066241;28;20045;-55
2022/08/28 03:02:40;;;;;;;6.05;1.30;;;13.90;99.90;;;;;;5065963;28;20049;-54
2022/08/28 03:05:07;;;;;;;4.30;1.80;;;13.80;99.90;;;;;;5047979;28;20151;-54
2022/08/28 03:07:33;;;;;;;7.90;1.77;;;13.80;99.90;;;;;;5066393;28;20060;-54
2022/08/28 03:09:59;;;;;;;4.97;3.15;;;13.80;99.90;;;;;;5066380;28;20040;-54
2022/08/28 03:12:25;;;;;;;4.57;1.50;;;13.70;99.90;;;;;;5066635;28;20175;-54
2022/08/28 03:14:52;;;;;;;10.10;2.53;;;13.70;99.90;;;;;;5065615;28;20052;-55
2022/08/28 03:17:18;;;;;;;7.20;2.47;;;13.70;99.90;;;;;;5066476;28;20056;-54
2022/08/28 03:19:43;;;;;;;3.22;1.35;;;13.70;99.90;;;;;;5066336;28;20059;-59
2022/08/28 03:22:10;;;;;;;4.95;1.70;;;13.70;99.90;;;;;;5047942;28;20623;-54
2022/08/28 03:24:36;;;;;;;3.47;1.60;;;13.70;99.90;;;;;;5066420;28;20065;-54
2022/08/28 03:27:03;;;;;;;8.02;2.60;;;13.10;99.90;;;;;;5066150;28;20064;-54
2022/08/28 03:29:29;;;;;;;2.88;1.50;;;13.60;99.90;;;;;;5067572;28;20048;-54
2022/08/28 03:31:54;;;;;;;2.60;1.25;;;13.00;99.90;;;;;;5068412;28;20043;-55
2022/08/28 03:34:20;;;;;;;6.82;1.75;;;13.50;99.90;;;;;;5069570;28;20097;-54
2022/08/28 03:36:46;;;;;;;9.68;2.08;;;13.50;99.90;;;;;;5061333;28;20505;-55
2022/08/28 03:39:12;;;;;;;3.42;1.52;;;13.50;99.90;;;;;;5049268;28;20536;-54
2022/08/28 03:41:39;;;;;;;5.68;1.77;;;13.50;99.90;;;;;;5049785;28;20041;-54
2022/08/28 03:44:05;;;;;;;5.15;2.08;;;13.40;99.90;;;;;;5049794;28;20040;-54
2022/08/28 03:46:32;;;;;;;4.15;1.38;;;13.40;99.90;;;;;;5053355;28;20496;-56
2022/08/28 03:49:00;;;;;;;6.95;1.75;;;13.40;99.90;;;;;;5069410;28;20053;-55
2022/08/28 03:51:28;;;;;;;3.85;1.65;;;13.40;99.90;;;;;;5068856;28;20504;-54
2022/08/28 03:53:55;;;;;;;4.40;1.73;;;13.30;99.90;;;;;;5069685;28;20044;-54
2022/08/28 03:56:24;;;;;;;4.22;1.33;;;13.30;99.90;;;;;;5069588;28;20048;-54
2022/08/28 03:58:52;;;;;;;4.32;1.60;;;13.40;99.90;;;;;;5069376;28;20510;-55
2022/08/28 04:01:18;;;;;;;5.25;2.08;;;13.30;99.90;;;;;;5068991;28;20076;-55
2022/08/28 04:03:45;;;;;;;5.20;1.48;;;13.30;99.90;;;;;;5069301;28;20056;-54
2022/08/28 04:06:11;;;;;;;4.72;1.67;;;13.30;99.90;;;;;;5068892;28;20529;-54
2022/08/28 04:08:37;;;;;;;9.07;2.30;;;13.30;99.90;;;;;;5069039;28;20528;-55
2022/08/28 04:11:03;;;;;;;3.08;1.52;;;13.30;99.90;;;;;;5069323;28;20751;-55
2022/08/28 04:13:29;;;;;;;4.22;1.48;;;13.10;99.90;;;;;;5068961;28;20050;-54
2022/08/28 04:16:01;;;;;;;5.68;1.35;;;13.30;99.90;;;;;;5050451;28;20056;-55
2022/08/28 04:18:28;;;;;;;4.45;2.30;;;13.20;99.90;;;;;;5059109;28;20499;-54
2022/08/28 04:20:58;;;;;;;5.50;1.48;;;13.20;99.90;;;;;;5048802;28;20049;-53
2022/08/28 04:23:23;;;;;;;2.35;1.70;;;13.20;99.90;;;;;;5058297;28;20147;-55
2022/08/28 04:25:49;;;;;;;4.68;1.50;;;13.20;99.90;;;;;;5068730;28;20151;-54
2022/08/28 04:28:15;;;;;;;3.13;1.83;;;13.20;99.90;;;;;;5068851;28;20044;-55
2022/08/28 04:30:41;;;;;;;7.05;2.15;;;13.20;99.90;;;;;;5068587;28;20080;-55
2022/08/28 04:33:07;;;;;;;5.30;1.48;;;13.20;99.90;;;;;;5068850;28;20823;-55
2022/08/28 04:35:32;;;;;;;5.05;1.50;;;13.20;99.90;;;;;;5067961;28;20131;-54
2022/08/28 04:37:58;;;;;;;10.15;1.88;;;13.30;99.90;;;;;;5049685;28;20056;-54
2022/08/28 04:40:24;;;;;;;8.65;2.20;;;13.30;99.90;;;;;;5048325;28;20048;-54
2022/08/28 04:42:50;;;;;;;6.20;2.45;;;13.40;99.90;;;;;;5047975;28;20045;-55
2022/08/28 04:45:16;;;;;;;9.80;2.08;;;13.50;99.90;;;;;;5063866;28;20087;-54
2022/08/28 04:47:42;;;;;;;4.13;1.30;;;13.60;99.90;;;;;;5068638;28;20056;-54
2022/08/28 04:50:10;;;;;;;4.10;1.40;;;13.70;99.90;;;;;;5068431;28;20051;-54
2022/08/28 04:52:36;;;;;;;3.97;1.60;;;13.60;99.90;;;;;;5068537;28;20051;-55
2022/08/28 04:55:03;;;;;;;5.53;1.70;;;13.70;99.90;;;;;;5068269;28;20041;-54
2022/08/28 04:57:29;;;;;;;5.28;1.98;;;13.70;99.90;;;;;;5049627;28;20611;-55
2022/08/28 04:59:57;;;;;;;8.02;2.17;;;13.70;99.90;;;;;;5067745;28;20746;-56
2022/08/28 05:02:23;;;;;;;5.80;1.70;;;13.70;99.90;;;;;;5068184;28;20056;-54
2022/08/28 05:04:49;;;;;;;5.97;1.58;;;13.80;99.90;;;;;;5050035;28;20058;-54
2022/08/28 05:07:15;;;;;;;8.07;2.15;;;13.80;99.90;;;;;;5068063;28;20056;-54
2022/08/28 05:09:40;;;;;;;7.90;1.75;;;13.90;99.90;;;;;;5067950;28;20394;-61
2022/08/28 05:12:06;;;;;;;3.20;1.35;;;13.90;99.90;;;;;;5067894;28;20056;-61
2022/08/28 05:14:32;;;;;;;5.35;1.50;;;13.90;99.90;;;;;;5067366;28;20040;-56
2022/08/28 05:16:57;;;;;;;5.82;1.50;;;13.90;99.90;;;;;;5050068;28;20044;-54
2022/08/28 05:19:25;;;;;;;4.43;1.70;;;14.00;99.90;;;;;;5050294;28;20091;-54
2022/08/28 05:21:52;;;;;;;4.90;1.75;;;14.00;99.90;;;;;;5047066;28;20053;-55
2022/08/28 05:24:18;;;;;;;6.43;1.75;;;14.00;99.90;;;;;;5064391;28;20053;-55
2022/08/28 05:26:44;;;;;;;9.18;1.50;;;14.10;99.90;;;;;;5067366;28;20041;-55
2022/08/28 05:29:11;;;;;;;5.07;1.45;;;14.30;99.90;;;;;;5067108;28;20055;-54
2022/08/28 05:31:38;;;;;;;3.38;1.40;;;14.40;99.90;;;;;;5067971;28;20052;-54
2022/08/28 05:34:05;;;;;;;3.83;1.40;;;14.40;99.90;;;;;;5067652;28;20040;-55
2022/08/28 05:36:34;;;;;;;6.03;1.88;;;14.50;99.90;;;;;;5060616;28;20033;-55
2022/08/28 05:39:02;;;;;;;7.35;1.55;;;14.50;99.90;;;;;;5047294;28;20095;-61
2022/08/28 05:41:30;;;;;;;5.43;1.38;;;14.70;99.90;;;;;;5047459;28;20410;-55
2022/08/28 05:44:01;;;;;;;6.93;1.30;;;14.80;99.90;;;;;;5060262;28;20075;-55
2022/08/28 05:46:28;;;;;;;6.93;1.80;;;15.10;99.90;;;;;;5067004;28;20564;-54
2022/08/28 05:48:54;;;;;;;8.07;1.73;;;15.20;99.90;;;;;;5067073;28;20135;-55
2022/08/28 05:51:22;;;;;;;10.38;1.60;;;15.20;99.90;;;;;;5067323;28;20044;-55
2022/08/28 05:53:48;;;;;;;4.25;1.60;;;15.10;99.90;;;;;;5067151;28;20056;-55
2022/08/28 05:56:24;;;;;;;4.75;1.23;;;15.10;99.90;;;;;;5067248;28;20044;-54
2022/08/28 05:58:50;;;;;;;7.68;1.80;;;15.10;99.90;;;;;;5066618;28;20370;-55
2022/08/28 06:01:22;;;;;;;7.07;1.10;;;15.00;99.90;;;;;;5066925;28;20045;-55
2022/08/28 06:03:57;;;;;;;6.88;1.98;;;15.20;99.90;;;;;;5048854;28;20472;-54
2022/08/28 06:06:24;;;;;;;5.43;1.90;;;15.10;99.90;;;;;;5067224;28;20044;-55
2022/08/28 06:08:55;;;;;;;5.35;1.45;;;15.30;99.90;;;;;;5066295;28;20055;-55
2022/08/28 06:11:21;;;;;;;4.50;1.50;;;15.40;99.90;;;;;;5066555;28;20036;-54
2022/08/28 06:13:47;;;;;;;3.97;1.52;;;15.60;99.90;;;;;;5066876;28;20056;-54
2022/08/28 06:16:13;;;;;;;5.90;1.40;;;15.70;99.90;;;;;;5066743;28;20068;-55
2022/08/28 06:18:40;;;;;;;3.58;1.15;;;15.80;99.90;;;;;;5054896;28;20521;-55
2022/08/28 06:21:07;;;;;;;7.43;1.98;;;16.00;99.90;;;;;;5046893;28;20152;-54
2022/08/28 06:23:33;;;;;;;2.63;1.60;;;16.20;99.90;;;;;;5057260;28;20045;-55
2022/08/28 06:25:58;;;;;;;8.27;2.38;;;16.40;99.90;;;;;;5066963;28;20051;-57
2022/08/28 06:28:26;;;;;;;2.97;1.70;;;16.60;99.90;;;;;;5066763;28;20592;-55
2022/08/28 06:30:53;;;;;;;3.53;1.20;;;16.70;99.90;;;;;;5066642;28;20047;-55
2022/08/28 06:33:21;;;;;;;6.28;1.58;;;17.00;99.90;;;;;;5066846;28;20053;-56
2022/08/28 06:35:50;;;;;;;5.43;1.15;;;17.10;99.90;;;;;;5063370;28;20119;-55
2022/08/28 06:38:17;;;;;;;4.70;1.45;;;17.10;99.90;;;;;;5066446;28;20045;-56
2022/08/28 06:40:46;;;;;;;6.28;1.55;;;17.30;99.90;;;;;;5066491;28;20045;-55
2022/08/28 06:43:12;;;;;;;3.47;1.50;;;17.30;99.90;;;;;;5065108;28;20390;-55
2022/08/28 06:45:43;;;;;;;2.63;0.93;;;17.60;99.90;;;;;;5065657;28;20040;-55
2022/08/28 06:48:12;;;;;;;4.35;1.50;;;17.70;99.90;;;;;;5065211;28;20082;-55
2022/08/28 06:50:46;;;;;;;5.50;1.92;;;17.70;99.90;;;;;;5054242;28;20048;-55
2022/08/28 06:53:14;;;;;;;3.72;1.13;;;18.00;99.90;;;;;;5053191;28;20060;-56
2022/08/28 06:55:40;;;;;;;3.55;1.10;;;18.20;99.90;;;;;;5037212;28;20045;-55
2022/08/28 06:58:07;;;;;;;4.45;1.02;;;18.40;99.90;;;;;;5055273;28;20053;-55
2022/08/28 07:00:34;;;;;;;3.45;1.17;;;18.50;99.90;;;;;;5055095;28;20069;-55
2022/08/28 07:03:01;;;;;;;6.18;2.63;;;18.60;99.90;;;;;;5035841;28;20044;-55
2022/08/28 07:05:27;;;;;;;2.72;1.23;;;18.70;99.90;;;;;;5058592;28;20075;-55
2022/08/28 07:07:54;;;;;;;4.75;1.75;;;18.60;99.90;;;;;;5059270;28;20123;-55
2022/08/28 07:10:19;;;;;;;5.95;1.25;;;18.90;99.90;;;;;;5041109;28;20668;-54
2022/08/28 07:12:47;;;;;;;5.38;1.52;;;19.10;99.90;;;;;;5060797;28;20127;-55
2022/08/28 07:15:13;;;;;;;4.35;1.38;;;20.40;99.90;;;;;;5040792;28;20497;-55
2022/08/28 07:17:38;;;;;;;4.22;1.13;;;18.90;99.90;;;;;;5061485;28;20051;-55
2022/08/28 07:20:06;;;;;;;1.85;1.30;;;19.50;99.90;;;;;;5058426;28;20096;-55
2022/08/28 07:22:32;;;;;;;3.90;0.90;;;19.80;99.90;;;;;;5037755;28;20060;-55
2022/08/28 07:24:57;;;;;;;3.22;1.05;;;19.90;99.90;;;;;;5048614;28;20126;-55
2022/08/28 07:27:26;;;;;;;7.03;1.77;;;19.90;99.90;;;;;;5048267;28;20087;-56
2022/08/28 07:29:52;;;;;;;6.15;1.60;;;19.70;99.90;;;;;;5047008;28;20051;-56
2022/08/28 07:32:20;;;;;;;3.92;1.30;;;20.40;99.90;;;;;;5034871;28;20045;-57
2022/08/28 07:34:47;;;;;;;4.22;1.15;;;20.30;99.90;;;;;;5033990;28;20040;-56
2022/08/28 07:37:14;;;;;;;5.45;1.42;;;19.70;99.90;;;;;;5036385;28;20049;-55
2022/08/28 07:39:39;;;;;;;4.93;1.02;;;19.90;99.90;;;;;;5029126;28;20460;-55
2022/08/28 07:42:05;;;;;;;1.65;1.30;;;19.90;99.90;;;;;;5038273;28;20532;-55
2022/08/28 07:44:49;;;;;;;4.32;1.52;;;19.90;99.90;;;;;;5036577;28;20124;-55
2022/08/28 07:47:16;;;;;;;9.23;2.75;;;19.70;99.90;;;;;;5038900;28;20045;-55
2022/08/28 07:49:43;;;;;;;7.30;1.30;;;19.20;99.90;;;;;;5038404;28;20045;-55
2022/08/28 07:52:10;;;;;;;3.30;1.30;;;18.90;99.90;;;;;;5038240;28;20706;-55
2022/08/28 07:54:39;;;;;;;3.03;1.25;;;18.60;99.90;;;;;;5037775;28;20380;-55
2022/08/28 07:57:07;;;;;;;5.22;1.48;;;18.40;99.90;;;;;;5040168;28;20045;-55
2022/08/28 07:59:33;;;;;;;4.50;1.23;;;18.40;99.90;;;;;;5040910;28;20067;-55
2022/08/28 08:01:58;;;;;;;4.38;1.50;;;18.30;99.90;;;;;;5038393;28;20037;-55
2022/08/28 08:04:24;;;;;;;4.68;1.50;;;18.10;99.90;;;;;;5038849;28;20483;-55
2022/08/28 08:06:54;;;;;;;11.23;1.23;;;18.20;99.90;;;;;;5040006;28;20644;-55
2022/08/28 08:09:20;;;;;;;5.03;1.58;;;18.50;99.90;;;;;;5038021;28;20037;-55
2022/08/28 08:11:47;;;;;;;4.90;1.73;;;18.80;99.90;;;;;;5038511;28;20383;-55
2022/08/28 08:14:13;;;;;;;5.18;2.10;;;19.20;99.90;;;;;;5041047;28;20037;-61
2022/08/28 08:16:42;;;;;;;3.55;1.40;;;19.40;99.90;;;;;;5040697;28;20041;-55
2022/08/28 08:19:09;;;;;;;5.35;1.25;;;19.70;99.90;;;;;;5035269;28;20044;-60
2022/08/28 08:21:36;;;;;;;7.47;1.83;;;19.90;99.90;;;;;;5050935;28;20061;-55
2022/08/28 08:24:02;;;;;;;5.45;1.73;;;20.40;99.90;;;;;;5063758;28;20087;-55
2022/08/28 08:26:28;;;;;;;1.70;0.88;;;20.40;99.90;;;;;;5065163;28;20131;-55
2022/08/28 08:28:54;;;;;;;6.18;1.40;;;21.20;99.90;;;;;;5064303;28;20050;-55
2022/08/28 08:31:23;;;;;;;5.97;1.35;;;21.70;99.90;;;;;;5063081;28;20037;-55
2022/08/28 08:33:53;;;;;;;5.68;1.58;;;21.00;99.90;;;;;;5065620;28;20346;-56
2022/08/28 08:36:22;;;;;;;4.97;1.67;;;21.00;99.90;;;;;;5059570;28;20763;-55
2022/08/28 08:38:48;;;;;;;6.40;1.83;;;20.70;99.90;;;;;;5052662;28;20048;-55
2022/08/28 08:41:47;;;;;;;2.90;1.20;;;20.70;99.90;;;;;;5064392;28;20441;-55
2022/08/28 08:44:24;;;;;;;7.53;1.52;;;20.70;99.90;;;;;;5059209;28;20052;-55
2022/08/28 08:47:21;;;;;;;3.22;1.38;;;21.00;99.90;;;;;;5057632;28;20044;-55
2022/08/28 08:49:57;;;;;;;6.20;2.35;;;21.40;99.90;;;;;;5057982;28;20053;-56
2022/08/28 08:52:49;;;;;;;6.47;1.65;;;22.20;99.90;;;;;;5063429;28;20498;-55
2022/08/28 08:55:34;;;;;;;2.47;1.25;;;21.90;99.90;;;;;;5031547;28;20708;-55
2022/08/28 08:58:10;;;;;;;6.53;1.30;;;21.80;99.90;;;;;;5044023;28;20863;-56
2022/08/28 09:00:47;;;;;;;3.47;1.23;;;21.50;99.90;;;;;;5045646;28;20380;-57
2022/08/28 09:03:18;;;;;;;3.67;1.45;;;21.00;99.90;;;;;;5049214;28;20060;-56
2022/08/28 09:06:01;;;;;;;3.65;1.50;;;20.60;99.90;;;;;;5050356;28;20041;-55
2022/08/28 09:08:52;;;;;;;4.07;1.67;;;20.10;99.90;;;;;;5050233;28;20155;-56
2022/08/28 09:11:30;;;;;;;4.18;1.98;;;19.80;99.90;;;;;;5048261;28;20064;-56
2022/08/28 09:14:14;;;;;;;4.32;1.58;;;20.30;99.90;;;;;;5048746;28;20040;-55
2022/08/28 09:16:41;;;;;;;;;;;19.70;99.90;;;;;;5050634;28;20048;-61
2022/08/28 09:19:11;;;;;;;7.05;2.20;;;19.50;99.90;;;;;;5046009;28;19929;-61
2022/08/28 09:21:42;;;;;;;4.10;1.70;;;19.70;99.90;;;;;;5030015;28;20065;-61
2022/08/28 09:24:21;;;;;;;2.83;1.67;;;20.20;99.90;;;;;;5052305;28;20518;-59
2022/08/28 09:27:00;;;;;;;2.88;1.65;;;20.70;99.90;;;;;;5048933;28;20495;-59
2022/08/28 09:29:33;;;;;;;2.50;1.27;;;21.10;99.90;;;;;;5048210;28;20049;-60
2022/08/28 09:32:16;;;;;;;6.60;1.58;;;21.20;99.90;;;;;;5048895;28;20572;-59
2022/08/28 09:35:20;;;;;;;3.20;1.58;;;20.90;99.90;;;;;;5050590;28;20087;-57
2022/08/28 09:37:48;;;;;;;6.70;1.55;;;20.00;99.90;;;;;;5048028;28;20054;-55
2022/08/28 09:43:27;;;;;;;4.95;1.83;;;19.60;99.90;;;;;;5048113;28;20063;-55
2022/08/28 09:45:56;;;;;;;5.03;1.60;;;19.70;99.90;;;;;;5048052;28;20036;-55
2022/08/28 09:48:43;;;;;;;1.67;1.10;;;20.30;99.90;;;;;;5049793;28;20068;-55
2022/08/28 09:51:13;;;;;;;4.68;1.80;;;20.80;99.90;;;;;;5054592;28;20059;-55
2022/08/28 09:53:50;;;;;;;5.60;1.95;;;21.60;99.90;;;;;;5056256;28;20045;-55
2022/08/28 09:56:17;;;;;;;6.25;1.50;;;21.30;99.90;;;;;;5064338;28;20131;-55
2022/08/28 09:58:53;;;;;;;5.38;1.80;;;20.90;99.90;;;;;;5062140;28;20123;-55
2022/08/28 10:01:27;;;;;;;5.88;1.55;;;20.40;99.90;;;;;;5063145;28;20056;-55
2022/08/28 10:04:10;;;;;;;5.63;1.25;;;21.20;99.90;;;;;;5045514;28;20517;-55
2022/08/28 10:06:36;;;;;;;6.40;1.90;;;21.70;99.90;;;;;;5045115;28;20375;-56
2022/08/28 10:09:38;;;;;;;3.03;1.40;;;21.80;99.90;;;;;;5063840;28;20410;-55
2022/08/28 10:12:30;;;;;;;6.45;1.77;;;22.10;99.90;;;;;;5018278;28;20060;-55
2022/08/28 10:15:32;;;;;;;4.10;1.30;;;22.80;99.90;;;;;;5062678;28;20130;-56
2022/08/28 10:18:10;;;;;;;5.20;1.65;;;22.60;99.10;;;;;;5011146;28;20057;-55
2022/08/28 10:20:55;;;;;;;3.17;1.50;;;21.70;99.90;;;;;;5043077;28;20454;-55
2022/08/28 10:23:33;;;;;;;4.15;1.70;;;22.10;99.30;;;;;;5052126;28;20542;-55
2022/08/28 10:26:02;;;;;;;5.97;1.20;;;22.70;99.70;;;;;;5045439;28;20044;-56
2022/08/28 10:28:54;;;;;;;3.58;1.42;;;21.90;99.10;;;;;;5062105;28;20056;-55
2022/08/28 10:31:38;;;;;;;5.63;1.33;;;21.40;99.20;;;;;;5063613;28;20102;-56
2022/08/28 10:34:22;;;;;;;2.20;1.08;;;21.20;99.90;;;;;;5058163;28;20518;-56
2022/08/28 10:36:59;;;;;;;6.30;1.73;;;21.70;99.90;;;;;;5053664;28;20059;-56
2022/08/28 10:39:29;;;;;;;3.45;1.00;;;22.40;99.90;;;;;;5061400;28;20538;-55
2022/08/28 10:42:01;;;;;;;4.50;1.35;;;22.60;99.60;;;;;;5057374;28;20562;-55
2022/08/28 10:44:58;;;;;;;5.72;1.27;;;22.00;99.70;;;;;;5056921;28;20061;-56
2022/08/28 10:47:27;;;;;;;5.20;1.50;;;22.50;99.50;;;;;;5057849;28;20048;-55
2022/08/28 10:50:00;;;;;;;4.20;1.40;;;21.80;99.30;;;;;;5057158;28;20495;-55
2022/08/28 10:52:43;;;;;;;7.03;2.30;;;22.00;99.20;;;;;;5057033;28;20076;-56
2022/08/28 10:55:20;;;;;;;4.32;1.40;;;21.90;98.80;;;;;;5051792;28;20451;-56
2022/08/28 10:58:06;;;;;;;3.67;1.17;;;22.50;98.40;;;;;;5053539;28;20049;-56
2022/08/28 11:00:33;;;;;;;5.45;1.52;;;22.00;98.20;;;;;;5052534;28;20120;-56
2022/08/28 11:03:10;;;;;;;1.85;1.38;;;21.30;99.10;;;;;;5048030;28;20596;-56
2022/08/28 11:05:46;;;;;;;3.97;2.03;;;21.60;98.40;;;;;;5051453;28;20040;-57
2022/08/28 11:08:40;;;;;;;3.67;1.45;;;21.50;98.10;;;;;;5053264;28;20554;-55
2022/08/28 11:11:12;;;;;;;1.67;1.00;;;22.00;98.60;;;;;;5050533;28;20152;-55
2022/08/28 11:13:44;;;;;;;4.88;1.42;;;22.00;98.20;;;;;;5052515;28;20046;-55
2022/08/28 11:16:27;;;;;;;2.97;1.45;;;22.40;97.50;;;;;;5052874;28;20385;-56
2022/08/28 11:19:23;;;;;;;4.97;1.38;;;21.80;97.70;;;;;;5049999;28;20268;-56
2022/08/28 11:21:49;;;;;;;2.13;1.27;;;22.30;98.00;;;;;;5045766;28;20056;-58
2022/08/28 11:24:38;;;;;;;3.42;1.60;;;22.60;97.30;;;;;;5062839;28;20092;-56
2022/08/28 11:27:25;;;;;;;2.90;1.42;;;23.30;96.90;;;;;;5028517;28;20075;-55
2022/08/28 11:29:56;;;;;;;6.20;1.67;;;24.90;95.20;;;;;;5055674;28;20060;-56
2022/08/28 11:32:30;;;;;;;3.55;1.50;;;24.00;95.10;;;;;;5064989;28;20044;-56
2022/08/28 11:35:03;;;;;;;3.90;1.58;;;24.60;95.10;;;;;;5066169;28;20052;-56
2022/08/28 11:37:39;;;;;;;4.35;1.45;;;24.90;94.20;;;;;;5034207;28;20053;-58
2022/08/28 11:40:29;;;;;;;8.45;1.83;;;26.70;93.20;;;;;;5046406;28;20053;-56
2022/08/28 11:43:19;;;;;;;5.45;1.38;;;26.30;93.40;;;;;;5046637;28;20045;-57
2022/08/28 11:45:45;;;;;;;5.80;1.52;;;24.10;94.60;;;;;;5048034;28;20045;-57
2022/08/28 11:48:36;;;;;;;3.80;1.63;;;22.90;96.20;;;;;;5048262;28;20061;-56
2022/08/28 11:51:17;;;;;;;2.65;1.55;;;25.50;95.00;;;;;;5047636;28;20469;-58
2022/08/28 11:53:46;;;;;;;4.00;2.08;;;26.60;93.40;;;;;;5066706;28;20065;-56
2022/08/28 11:56:59;;;;;;;3.92;1.33;;;27.70;92.60;;;;;;5064166;28;20643;-55
2022/08/28 11:59:56;;;;;;;4.93;1.65;;;26.90;91.80;;;;;;5008779;28;20049;-56
2022/08/28 12:02:45;;;;;;;8.52;1.73;;;23.90;93.10;;;;;;5065161;28;20055;-56
2022/08/28 12:05:14;;;;;;;3.17;1.48;;;24.90;94.30;;;;;;5065584;28;20561;-57
2022/08/28 12:07:45;;;;;;;3.78;1.70;;;26.70;92.40;;;;;;5066133;28;20051;-56
2022/08/28 12:10:24;;;;;;;2.45;1.67;;;27.70;91.20;;;;;;5065361;28;20052;-56
2022/08/28 12:12:54;;;;;;;3.75;1.67;;;28.50;90.60;;;;;;5060884;28;20113;-56
2022/08/28 12:15:29;;;;;;;4.78;1.52;;;26.10;91.00;;;;;;5063549;28;20049;-55
2022/08/28 12:17:58;;;;;;;4.50;1.80;;;24.00;92.80;;;;;;5062450;28;20545;-56
2022/08/28 12:20:33;;;;;;;2.65;1.60;;;26.30;91.70;;;;;;5047458;28;20056;-56
2022/08/28 12:23:03;;;;;;;4.10;2.10;;;25.40;91.60;;;;;;5064942;28;20103;-55
2022/08/28 12:25:31;;;;;;;10.40;1.63;;;26.40;91.20;;;;;;5065946;28;20041;-55
2022/08/28 12:28:03;;;;;;;3.58;1.88;;;25.90;90.90;;;;;;5059986;28;20044;-55
2022/08/28 12:30:40;;;;;;;4.05;1.15;;;24.60;91.80;;;;;;5049835;28;20048;-55
2022/08/28 12:33:16;;;;;;;2.25;1.38;;;25.50;91.10;;;;;;5054720;28;20048;-55
2022/08/28 12:35:42;;;;;;;3.20;1.88;;;24.70;92.80;;;;;;5065513;28;20053;-56
2022/08/28 12:38:08;;;;;;;4.97;1.80;;;26.10;91.90;;;;;;5027478;28;20055;-55
2022/08/28 12:40:36;;;;;;;2.72;1.10;;;25.90;92.30;;;;;;5050075;28;20041;-57
2022/08/28 12:43:11;;;;;;;4.30;1.60;;;23.60;93.20;;;;;;5065060;28;20406;-56
2022/08/28 12:45:52;;;;;;;4.15;1.73;;;23.70;93.40;;;;;;5061734;28;20619;-56
2022/08/28 12:48:21;;;;;;;6.57;1.98;;;23.80;94.20;;;;;;5044562;28;20044;-55
2022/08/28 12:50:54;;;;;;;2.72;1.55;;;23.10;94.70;;;;;;5064885;28;20052;-55
2022/08/28 12:53:21;;;;;;;2.67;1.20;;;23.00;95.00;;;;;;5064800;28;20045;-55
2022/08/28 12:55:47;;;;;;;3.40;1.00;;;22.50;95.60;;;;;;5064868;28;20147;-55
2022/08/28 12:58:27;;;;;;;3.03;1.33;;;22.10;97.10;;;;;;5064699;28;20490;-56
2022/08/28 13:00:58;;;;;;;4.88;1.27;;;22.10;97.40;;;;;;5064620;28;20530;-55
2022/08/28 13:03:24;;;;;;;2.65;1.52;;;22.50;97.40;;;;;;5064251;28;20128;-56
2022/08/28 13:06:05;;;;;;;5.35;1.75;;;23.10;97.00;;;;;;5062366;28;20051;-56
2022/08/28 13:08:32;;;;;;;3.17;1.20;;;23.90;96.40;;;;;;5034870;28;20641;-56
2022/08/28 13:10:59;;;;;;;3.83;1.05;;;23.30;95.20;;;;;;5051105;28;20437;-56